sensor_id;sensor_type;location;lat;lon;timestamp;P1;durP1;ratioP1;P2;durP2;ratioP2
18399;SDS011;9326;49.468;11.008;2023-04-25T05:00:31;6.93;;;6.27;;
18399;SDS011;9326;49.468;11.008;2023-04-25T05:02:59;7.63;;;6.47;;
18399;SDS011;9326;49.468;11.008;2023-04-25T05:05:27;7.00;;;5.90;;
18399;SDS011;9326;49.468;11.008;2023-04-25T05:07:54;6.40;;;5.80;;
18399;SDS011;9326;49.468;11.008;2023-04-25T05:10:21;7.03;;;6.23;;
18399;SDS011;9326;49.468;11.008;2023-04-25T05:12:48;6.57;;;5.90;;
18399;SDS011;9326;49.468;11.008;2023-04-25T05:15:16;6.37;;;5.77;;
18399;SDS011;9326;49.468;11.008;2023-04-25T05:17:44;6.43;;;5.83;;
18399;SDS011;9326;49.468;11.008;2023-04-25T05:20:11;5.87;;;5.27;;
18399;SDS011;9326;49.468;11.008;2023-04-25T05:22:39;6.07;;;5.57;;
18399;SDS011;9326;49.468;11.008;2023-04-25T05:25:07;6.20;;;5.47;;
18399;SDS011;9326;49.468;11.008;2023-04-25T05:27:34;6.23;;;5.63;;
18399;SDS011;9326;49.468;11.008;2023-04-25T05:30:01;6.97;;;5.73;;
18399;SDS011;9326;49.468;11.008;2023-04-25T05:32:30;7.20;;;5.60;;
18399;SDS011;9326;49.468;11.008;2023-04-25T05:34:59;6.43;;;5.77;;
18399;SDS011;9326;49.468;11.008;2023-04-25T05:37:26;5.40;;;4.93;;
18399;SDS011;9326;49.468;11.008;2023-04-25T05:39:55;5.90;;;5.30;;
18399;SDS011;9326;49.468;11.008;2023-04-25T05:42:22;6.33;;;5.73;;
18399;SDS011;9326;49.468;11.008;2023-04-25T05:44:49;5.70;;;5.07;;
18399;SDS011;9326;49.468;11.008;2023-04-25T05:47:17;6.23;;;5.37;;
18399;SDS011;9326;49.468;11.008;2023-04-25T05:49:44;5.67;;;5.10;;
18399;SDS011;9326;49.468;11.008;2023-04-25T05:52:12;5.93;;;5.33;;
18399;SDS011;9326;49.468;11.008;2023-04-25T05:54:40;5.87;;;5.23;;
18399;SDS011;9326;49.468;11.008;2023-04-25T05:57:07;5.37;;;4.77;;
18399;SDS011;9326;49.468;11.008;2023-04-25T05:59:34;6.20;;;5.60;;
18399;SDS011;9326;49.468;11.008;2023-04-25T06:02:01;5.97;;;5.43;;
18399;SDS011;9326;49.468;11.008;2023-04-25T06:04:28;7.53;;;5.47;;
18399;SDS011;9326;49.468;11.008;2023-04-25T06:06:55;6.00;;;5.50;;
18399;SDS011;9326;49.468;11.008;2023-04-25T06:09:24;5.73;;;5.03;;
18399;SDS011;9326;49.468;11.008;2023-04-25T06:11:51;6.37;;;5.73;;
18399;SDS011;9326;49.468;11.008;2023-04-25T06:14:18;6.37;;;5.77;;
18399;SDS011;9326;49.468;11.008;2023-04-25T06:16:45;6.07;;;5.47;;
18399;SDS011;9326;49.468;11.008;2023-04-25T06:19:12;7.23;;;6.20;;
18399;SDS011;9326;49.468;11.008;2023-04-25T06:21:39;6.93;;;6.33;;
18399;SDS011;9326;49.468;11.008;2023-04-25T06:24:06;6.90;;;6.20;;
18399;SDS011;9326;49.468;11.008;2023-04-25T06:26:35;6.87;;;6.17;;
18399;SDS011;9326;49.468;11.008;2023-04-25T06:29:02;7.93;;;7.03;;
18399;SDS011;9326;49.468;11.008;2023-04-25T06:31:29;7.60;;;6.70;;
18399;SDS011;9326;49.468;11.008;2023-04-25T06:33:57;8.03;;;7.23;;
18399;SDS011;9326;49.468;11.008;2023-04-25T06:36:24;32.47;;;22.00;;
18399;SDS011;9326;49.468;11.008;2023-04-25T06:38:52;9.50;;;8.60;;
18399;SDS011;9326;49.468;11.008;2023-04-25T06:41:22;9.33;;;7.97;;
18399;SDS011;9326;49.468;11.008;2023-04-25T06:43:52;7.80;;;7.00;;
18399;SDS011;9326;49.468;11.008;2023-04-25T06:46:19;8.77;;;7.83;;
18399;SDS011;9326;49.468;11.008;2023-04-25T06:48:47;7.67;;;6.97;;
18399;SDS011;9326;49.468;11.008;2023-04-25T06:51:15;10.87;;;8.53;;
18399;SDS011;9326;49.468;11.008;2023-04-25T06:53:42;8.97;;;8.17;;
18399;SDS011;9326;49.468;11.008;2023-04-25T06:56:10;10.23;;;8.70;;
18399;SDS011;9326;49.468;11.008;2023-04-25T06:58:37;9.53;;;8.57;;
18399;SDS011;9326;49.468;11.008;2023-04-25T07:01:06;9.67;;;8.67;;
18399;SDS011;9326;49.468;11.008;2023-04-25T07:03:33;9.63;;;8.50;;
18399;SDS011;9326;49.468;11.008;2023-04-25T07:06:02;8.30;;;7.33;;
18399;SDS011;9326;49.468;11.008;2023-04-25T07:08:29;9.10;;;7.67;;
18399;SDS011;9326;49.468;11.008;2023-04-25T07:10:56;7.10;;;6.40;;
18399;SDS011;9326;49.468;11.008;2023-04-25T07:13:23;8.97;;;6.90;;
18399;SDS011;9326;49.468;11.008;2023-04-25T07:15:50;6.97;;;6.27;;
18399;SDS011;9326;49.468;11.008;2023-04-25T07:18:20;6.77;;;5.13;;
18399;SDS011;9326;49.468;11.008;2023-04-25T07:20:48;5.70;;;5.10;;
18399;SDS011;9326;49.468;11.008;2023-04-25T07:23:15;4.77;;;4.27;;
18399;SDS011;9326;49.468;11.008;2023-04-25T07:25:43;8.07;;;4.97;;
18399;SDS011;9326;49.468;11.008;2023-04-25T07:28:12;6.00;;;4.30;;
18399;SDS011;9326;49.468;11.008;2023-04-25T07:30:39;6.07;;;4.00;;
18399;SDS011;9326;49.468;11.008;2023-04-25T07:33:06;4.20;;;3.80;;
18399;SDS011;9326;49.468;11.008;2023-04-25T07:35:36;4.63;;;3.97;;
18399;SDS011;9326;49.468;11.008;2023-04-25T07:38:04;5.13;;;4.53;;
18399;SDS011;9326;49.468;11.008;2023-04-25T07:40:33;5.10;;;4.60;;
18399;SDS011;9326;49.468;11.008;2023-04-25T07:43:00;5.33;;;4.83;;
18399;SDS011;9326;49.468;11.008;2023-04-25T07:45:27;6.67;;;4.77;;
18399;SDS011;9326;49.468;11.008;2023-04-25T07:47:54;8.43;;;5.60;;
18399;SDS011;9326;49.468;11.008;2023-04-25T07:50:21;7.90;;;4.83;;
18399;SDS011;9326;49.468;11.008;2023-04-25T07:52:50;6.73;;;5.43;;
18399;SDS011;9326;49.468;11.008;2023-04-25T07:55:18;9.40;;;4.93;;
18399;SDS011;9326;49.468;11.008;2023-04-25T07:57:47;5.57;;;4.10;;
18399;SDS011;9326;49.468;11.008;2023-04-25T08:00:14;5.57;;;4.07;;
18399;SDS011;9326;49.468;11.008;2023-04-25T08:02:42;4.63;;;4.03;;
18399;SDS011;9326;49.468;11.008;2023-04-25T08:05:09;5.47;;;3.90;;
18399;SDS011;9326;49.468;11.008;2023-04-25T08:07:39;6.50;;;3.93;;
18399;SDS011;9326;49.468;11.008;2023-04-25T08:10:08;6.03;;;3.80;;
18399;SDS011;9326;49.468;11.008;2023-04-25T08:12:35;5.30;;;3.43;;
18399;SDS011;9326;49.468;11.008;2023-04-25T08:15:03;4.87;;;4.33;;
18399;SDS011;9326;49.468;11.008;2023-04-25T08:17:30;9.07;;;5.07;;
18399;SDS011;9326;49.468;11.008;2023-04-25T08:19:57;7.30;;;4.23;;
18399;SDS011;9326;49.468;11.008;2023-04-25T08:22:25;6.83;;;4.40;;
18399;SDS011;9326;49.468;11.008;2023-04-25T08:24:53;5.30;;;4.80;;
18399;SDS011;9326;49.468;11.008;2023-04-25T08:27:22;6.80;;;4.80;;
18399;SDS011;9326;49.468;11.008;2023-04-25T08:29:50;4.30;;;3.83;;
18399;SDS011;9326;49.468;11.008;2023-04-25T08:32:18;4.77;;;4.10;;
18399;SDS011;9326;49.468;11.008;2023-04-25T08:34:46;5.57;;;3.97;;
18399;SDS011;9326;49.468;11.008;2023-04-25T08:37:13;6.10;;;4.43;;
18399;SDS011;9326;49.468;11.008;2023-04-25T08:39:40;6.53;;;4.37;;
18399;SDS011;9326;49.468;11.008;2023-04-25T08:42:08;4.33;;;3.77;;
18399;SDS011;9326;49.468;11.008;2023-04-25T08:44:37;4.83;;;3.70;;
18399;SDS011;9326;49.468;11.008;2023-04-25T08:47:04;5.70;;;4.30;;
18399;SDS011;9326;49.468;11.008;2023-04-25T08:49:34;5.13;;;4.63;;
18399;SDS011;9326;49.468;11.008;2023-04-25T08:52:01;4.73;;;3.93;;
18399;SDS011;9326;49.468;11.008;2023-04-25T08:54:31;6.93;;;4.77;;
18399;SDS011;9326;49.468;11.008;2023-04-25T08:56:59;4.77;;;4.13;;
18399;SDS011;9326;49.468;11.008;2023-04-25T08:59:28;4.80;;;3.83;;
18399;SDS011;9326;49.468;11.008;2023-04-25T09:01:57;5.73;;;4.60;;
18399;SDS011;9326;49.468;11.008;2023-04-25T09:04:25;5.80;;;4.33;;
18399;SDS011;9326;49.468;11.008;2023-04-25T09:06:52;5.70;;;5.00;;
18399;SDS011;9326;49.468;11.008;2023-04-25T09:09:19;5.07;;;4.57;;
18399;SDS011;9326;49.468;11.008;2023-04-25T09:11:47;5.80;;;5.20;;
18399;SDS011;9326;49.468;11.008;2023-04-25T09:14:15;6.00;;;4.77;;
18399;SDS011;9326;49.468;11.008;2023-04-25T09:16:59;5.43;;;4.93;;
18399;SDS011;9326;49.468;11.008;2023-04-25T09:19:27;6.80;;;6.10;;
18399;SDS011;9326;49.468;11.008;2023-04-25T09:21:55;6.00;;;5.50;;
18399;SDS011;9326;49.468;11.008;2023-04-25T09:24:35;6.57;;;5.27;;
18399;SDS011;9326;49.468;11.008;2023-04-25T09:27:03;6.67;;;5.50;;
18399;SDS011;9326;49.468;11.008;2023-04-25T09:29:30;6.17;;;5.57;;
18399;SDS011;9326;49.468;11.008;2023-04-25T09:32:13;5.90;;;5.30;;
18399;SDS011;9326;49.468;11.008;2023-04-25T09:34:41;6.83;;;5.27;;
18399;SDS011;9326;49.468;11.008;2023-04-25T09:37:08;5.93;;;5.03;;
18399;SDS011;9326;49.468;11.008;2023-04-25T09:39:36;5.03;;;4.53;;
18399;SDS011;9326;49.468;11.008;2023-04-25T09:42:03;4.97;;;4.47;;
18399;SDS011;9326;49.468;11.008;2023-04-25T09:44:30;5.37;;;4.30;;
18399;SDS011;9326;49.468;11.008;2023-04-25T09:46:58;5.40;;;4.87;;
18399;SDS011;9326;49.468;11.008;2023-04-25T09:49:27;5.80;;;4.43;;
18399;SDS011;9326;49.468;11.008;2023-04-25T09:51:54;5.77;;;4.60;;
18399;SDS011;9326;49.468;11.008;2023-04-25T09:54:22;4.40;;;4.00;;
18399;SDS011;9326;49.468;11.008;2023-04-25T09:56:50;5.27;;;4.77;;
18399;SDS011;9326;49.468;11.008;2023-04-25T09:59:18;5.03;;;4.63;;
18399;SDS011;9326;49.468;11.008;2023-04-25T10:01:46;6.20;;;4.53;;
18399;SDS011;9326;49.468;11.008;2023-04-25T10:04:16;5.33;;;4.20;;
18399;SDS011;9326;49.468;11.008;2023-04-25T10:06:46;5.57;;;4.30;;
18399;SDS011;9326;49.468;11.008;2023-04-25T10:09:15;5.00;;;4.47;;
18399;SDS011;9326;49.468;11.008;2023-04-25T10:11:43;6.13;;;4.40;;
18399;SDS011;9326;49.468;11.008;2023-04-25T10:14:12;5.13;;;4.73;;
18399;SDS011;9326;49.468;11.008;2023-04-25T10:16:42;5.67;;;4.60;;
18399;SDS011;9326;49.468;11.008;2023-04-25T10:19:09;5.83;;;4.60;;
18399;SDS011;9326;49.468;11.008;2023-04-25T10:21:40;4.77;;;4.20;;
18399;SDS011;9326;49.468;11.008;2023-04-25T10:24:12;4.53;;;4.13;;
18399;SDS011;9326;49.468;11.008;2023-04-25T10:26:42;3.00;;;2.80;;
18399;SDS011;9326;49.468;11.008;2023-04-25T10:29:23;3.13;;;2.30;;
18399;SDS011;9326;49.468;11.008;2023-04-25T10:31:51;5.23;;;2.53;;
18399;SDS011;9326;49.468;11.008;2023-04-25T10:34:18;2.97;;;2.00;;
18399;SDS011;9326;49.468;11.008;2023-04-25T10:36:49;3.20;;;2.43;;
18399;SDS011;9326;49.468;11.008;2023-04-25T10:39:22;2.70;;;2.33;;
18399;SDS011;9326;49.468;11.008;2023-04-25T10:41:53;4.87;;;2.60;;
18399;SDS011;9326;49.468;11.008;2023-04-25T10:44:22;3.67;;;2.50;;
18399;SDS011;9326;49.468;11.008;2023-04-25T10:46:49;2.03;;;1.83;;
18399;SDS011;9326;49.468;11.008;2023-04-25T10:49:29;2.37;;;1.50;;
18399;SDS011;9326;49.468;11.008;2023-04-25T10:52:11;2.40;;;1.57;;
18399;SDS011;9326;49.468;11.008;2023-04-25T10:54:43;2.83;;;1.70;;
18399;SDS011;9326;49.468;11.008;2023-04-25T10:57:31;2.10;;;1.90;;
18399;SDS011;9326;49.468;11.008;2023-04-25T11:00:04;2.80;;;1.30;;
18399;SDS011;9326;49.468;11.008;2023-04-25T11:02:36;1.70;;;1.30;;
18399;SDS011;9326;49.468;11.008;2023-04-25T11:05:05;2.27;;;1.40;;
18399;SDS011;9326;49.468;11.008;2023-04-25T11:07:34;2.90;;;1.40;;
18399;SDS011;9326;49.468;11.008;2023-04-25T11:10:05;2.07;;;1.43;;
18399;SDS011;9326;49.468;11.008;2023-04-25T11:12:32;2.13;;;1.47;;
18399;SDS011;9326;49.468;11.008;2023-04-25T11:15:00;2.00;;;1.50;;
18399;SDS011;9326;49.468;11.008;2023-04-25T11:17:27;2.70;;;1.77;;
18399;SDS011;9326;49.468;11.008;2023-04-25T11:19:56;1.30;;;1.20;;
18399;SDS011;9326;49.468;11.008;2023-04-25T11:22:23;2.90;;;1.63;;
18399;SDS011;9326;49.468;11.008;2023-04-25T11:24:50;2.30;;;1.60;;
18399;SDS011;9326;49.468;11.008;2023-04-25T11:27:18;1.30;;;1.10;;
18399;SDS011;9326;49.468;11.008;2023-04-25T11:29:46;2.87;;;1.30;;
18399;SDS011;9326;49.468;11.008;2023-04-25T11:32:14;1.83;;;1.23;;
18399;SDS011;9326;49.468;11.008;2023-04-25T11:34:44;1.83;;;1.40;;
18399;SDS011;9326;49.468;11.008;2023-04-25T11:37:11;2.00;;;1.20;;
18399;SDS011;9326;49.468;11.008;2023-04-25T11:39:39;2.07;;;1.40;;
18399;SDS011;9326;49.468;11.008;2023-04-25T11:42:09;1.50;;;1.40;;
18399;SDS011;9326;49.468;11.008;2023-04-25T11:44:38;1.87;;;1.50;;
18399;SDS011;9326;49.468;11.008;2023-04-25T11:47:06;1.20;;;1.07;;
18399;SDS011;9326;49.468;11.008;2023-04-25T11:49:33;1.03;;;1.00;;
18399;SDS011;9326;49.468;11.008;2023-04-25T11:52:00;2.00;;;1.23;;
18399;SDS011;9326;49.468;11.008;2023-04-25T11:54:27;2.10;;;1.00;;
18399;SDS011;9326;49.468;11.008;2023-04-25T11:56:55;1.10;;;1.00;;
18399;SDS011;9326;49.468;11.008;2023-04-25T11:59:23;1.20;;;1.10;;
18399;SDS011;9326;49.468;11.008;2023-04-25T12:01:52;1.57;;;0.90;;
18399;SDS011;9326;49.468;11.008;2023-04-25T12:04:20;0.80;;;0.80;;
18399;SDS011;9326;49.468;11.008;2023-04-25T12:06:48;2.50;;;1.10;;
18399;SDS011;9326;49.468;11.008;2023-04-25T12:09:16;1.77;;;1.03;;
18399;SDS011;9326;49.468;11.008;2023-04-25T12:11:52;1.20;;;1.10;;
18399;SDS011;9326;49.468;11.008;2023-04-25T12:14:21;1.60;;;1.30;;
18399;SDS011;9326;49.468;11.008;2023-04-25T12:16:49;1.57;;;1.30;;
18399;SDS011;9326;49.468;11.008;2023-04-25T12:19:18;1.83;;;1.20;;
18399;SDS011;9326;49.468;11.008;2023-04-25T12:21:46;1.40;;;1.27;;
18399;SDS011;9326;49.468;11.008;2023-04-25T12:24:14;1.20;;;0.97;;
18399;SDS011;9326;49.468;11.008;2023-04-25T12:26:53;1.40;;;1.00;;
18399;SDS011;9326;49.468;11.008;2023-04-25T12:29:21;1.60;;;1.27;;
18399;SDS011;9326;49.468;11.008;2023-04-25T12:31:49;1.30;;;1.20;;
18399;SDS011;9326;49.468;11.008;2023-04-25T12:34:18;0.87;;;0.87;;
18399;SDS011;9326;49.468;11.008;2023-04-25T12:36:45;1.47;;;1.10;;
18399;SDS011;9326;49.468;11.008;2023-04-25T12:39:15;2.57;;;1.40;;
18399;SDS011;9326;49.468;11.008;2023-04-25T12:41:43;1.63;;;1.50;;
18399;SDS011;9326;49.468;11.008;2023-04-25T12:44:11;1.77;;;1.50;;
18399;SDS011;9326;49.468;11.008;2023-04-25T12:46:41;1.33;;;1.23;;
18399;SDS011;9326;49.468;11.008;2023-04-25T12:49:08;1.40;;;1.30;;
18399;SDS011;9326;49.468;11.008;2023-04-25T12:51:37;2.80;;;1.53;;
18399;SDS011;9326;49.468;11.008;2023-04-25T12:54:04;3.73;;;1.63;;
18399;SDS011;9326;49.468;11.008;2023-04-25T12:56:32;1.70;;;1.47;;
18399;SDS011;9326;49.468;11.008;2023-04-25T12:58:59;1.47;;;0.97;;
18399;SDS011;9326;49.468;11.008;2023-04-25T13:01:28;1.83;;;1.60;;
18399;SDS011;9326;49.468;11.008;2023-04-25T13:03:56;1.40;;;1.30;;
18399;SDS011;9326;49.468;11.008;2023-04-25T13:06:24;1.67;;;1.57;;
18399;SDS011;9326;49.468;11.008;2023-04-25T13:08:54;1.30;;;1.20;;
18399;SDS011;9326;49.468;11.008;2023-04-25T13:11:21;3.53;;;1.57;;
18399;SDS011;9326;49.468;11.008;2023-04-25T13:13:48;1.80;;;1.57;;
18399;SDS011;9326;49.468;11.008;2023-04-25T13:16:15;2.43;;;1.60;;
18399;SDS011;9326;49.468;11.008;2023-04-25T13:18:44;2.00;;;1.90;;
18399;SDS011;9326;49.468;11.008;2023-04-25T13:21:11;1.70;;;1.60;;
18399;SDS011;9326;49.468;11.008;2023-04-25T13:23:40;2.17;;;1.50;;
18399;SDS011;9326;49.468;11.008;2023-04-25T13:26:10;1.20;;;1.10;;
18399;SDS011;9326;49.468;11.008;2023-04-25T13:28:37;2.93;;;1.23;;
18399;SDS011;9326;49.468;11.008;2023-04-25T13:31:05;2.73;;;1.80;;
18399;SDS011;9326;49.468;11.008;2023-04-25T13:33:32;1.40;;;1.30;;
18399;SDS011;9326;49.468;11.008;2023-04-25T13:36:00;2.33;;;1.30;;
18399;SDS011;9326;49.468;11.008;2023-04-25T13:38:30;0.73;;;0.73;;
18399;SDS011;9326;49.468;11.008;2023-04-25T13:40:57;2.27;;;1.70;;
18399;SDS011;9326;49.468;11.008;2023-04-25T13:43:27;1.60;;;1.37;;
18399;SDS011;9326;49.468;11.008;2023-04-25T13:45:54;2.07;;;1.87;;
18399;SDS011;9326;49.468;11.008;2023-04-25T13:48:21;2.07;;;1.67;;
18399;SDS011;9326;49.468;11.008;2023-04-25T13:50:48;2.00;;;1.87;;
18399;SDS011;9326;49.468;11.008;2023-04-25T13:53:16;2.50;;;2.00;;
18399;SDS011;9326;49.468;11.008;2023-04-25T13:55:43;2.67;;;2.07;;
18399;SDS011;9326;49.468;11.008;2023-04-25T13:58:11;2.77;;;1.70;;
18399;SDS011;9326;49.468;11.008;2023-04-25T14:00:39;3.50;;;2.10;;
18399;SDS011;9326;49.468;11.008;2023-04-25T14:03:08;1.87;;;1.77;;
18399;SDS011;9326;49.468;11.008;2023-04-25T14:05:35;2.70;;;2.30;;
18399;SDS011;9326;49.468;11.008;2023-04-25T14:08:04;2.47;;;1.80;;
18399;SDS011;9326;49.468;11.008;2023-04-25T14:10:32;3.07;;;2.33;;
18399;SDS011;9326;49.468;11.008;2023-04-25T14:12:59;2.43;;;2.20;;
18399;SDS011;9326;49.468;11.008;2023-04-25T14:15:27;3.43;;;2.20;;
18399;SDS011;9326;49.468;11.008;2023-04-25T14:17:58;2.83;;;2.20;;
18399;SDS011;9326;49.468;11.008;2023-04-25T14:20:26;2.23;;;2.03;;
18399;SDS011;9326;49.468;11.008;2023-04-25T14:22:53;2.13;;;1.90;;
18399;SDS011;9326;49.468;11.008;2023-04-25T14:25:23;2.47;;;2.23;;
18399;SDS011;9326;49.468;11.008;2023-04-25T14:27:52;2.50;;;2.30;;
18399;SDS011;9326;49.468;11.008;2023-04-25T14:30:19;3.27;;;2.40;;
18399;SDS011;9326;49.468;11.008;2023-04-25T14:32:47;3.10;;;2.40;;
18399;SDS011;9326;49.468;11.008;2023-04-25T14:35:24;2.80;;;2.33;;
18399;SDS011;9326;49.468;11.008;2023-04-25T14:37:51;3.43;;;2.40;;
18399;SDS011;9326;49.468;11.008;2023-04-25T14:40:21;2.33;;;2.13;;
18399;SDS011;9326;49.468;11.008;2023-04-25T14:42:49;4.10;;;2.20;;
18399;SDS011;9326;49.468;11.008;2023-04-25T14:45:17;2.60;;;2.40;;
18399;SDS011;9326;49.468;11.008;2023-04-25T14:47:44;3.03;;;2.73;;
18399;SDS011;9326;49.468;11.008;2023-04-25T14:50:11;3.67;;;2.50;;
18399;SDS011;9326;49.468;11.008;2023-04-25T14:52:39;3.00;;;2.23;;
18399;SDS011;9326;49.468;11.008;2023-04-25T14:55:08;3.40;;;2.50;;
18399;SDS011;9326;49.468;11.008;2023-04-25T14:57:36;4.63;;;2.90;;
18399;SDS011;9326;49.468;11.008;2023-04-25T15:00:04;4.07;;;2.70;;
18399;SDS011;9326;49.468;11.008;2023-04-25T15:02:34;3.57;;;2.83;;
18399;SDS011;9326;49.468;11.008;2023-04-25T15:05:01;3.10;;;2.80;;
18399;SDS011;9326;49.468;11.008;2023-04-25T15:07:29;3.47;;;2.53;;
18399;SDS011;9326;49.468;11.008;2023-04-25T15:10:02;4.00;;;2.60;;
18399;SDS011;9326;49.468;11.008;2023-04-25T15:12:30;4.83;;;3.03;;
18399;SDS011;9326;49.468;11.008;2023-04-25T15:14:58;4.90;;;2.43;;
18399;SDS011;9326;49.468;11.008;2023-04-25T15:17:26;3.90;;;2.60;;
18399;SDS011;9326;49.468;11.008;2023-04-25T15:19:56;3.20;;;2.47;;
18399;SDS011;9326;49.468;11.008;2023-04-25T15:22:23;3.00;;;2.37;;
18399;SDS011;9326;49.468;11.008;2023-04-25T15:24:50;2.80;;;2.30;;
18399;SDS011;9326;49.468;11.008;2023-04-25T15:27:19;5.33;;;2.57;;
18399;SDS011;9326;49.468;11.008;2023-04-25T15:29:46;3.43;;;2.63;;
18399;SDS011;9326;49.468;11.008;2023-04-25T15:32:13;3.40;;;2.73;;
18399;SDS011;9326;49.468;11.008;2023-04-25T15:34:40;4.73;;;2.97;;
18399;SDS011;9326;49.468;11.008;2023-04-25T15:37:07;4.27;;;3.23;;
18399;SDS011;9326;49.468;11.008;2023-04-25T15:39:35;3.50;;;3.10;;
18399;SDS011;9326;49.468;11.008;2023-04-25T15:42:02;3.53;;;3.10;;
18399;SDS011;9326;49.468;11.008;2023-04-25T15:44:30;3.97;;;3.10;;
18399;SDS011;9326;49.468;11.008;2023-04-25T15:46:57;3.33;;;3.03;;
18399;SDS011;9326;49.468;11.008;2023-04-25T15:49:25;2.87;;;2.67;;
18399;SDS011;9326;49.468;11.008;2023-04-25T15:51:52;3.70;;;2.80;;
18399;SDS011;9326;49.468;11.008;2023-04-25T15:54:21;3.30;;;2.80;;
18399;SDS011;9326;49.468;11.008;2023-04-25T15:56:48;3.70;;;2.47;;
18399;SDS011;9326;49.468;11.008;2023-04-25T15:59:15;3.47;;;2.70;;
18399;SDS011;9326;49.468;11.008;2023-04-25T16:01:43;5.67;;;2.90;;
18399;SDS011;9326;49.468;11.008;2023-04-25T16:04:10;2.93;;;2.47;;
18399;SDS011;9326;49.468;11.008;2023-04-25T16:06:38;3.40;;;3.00;;
18399;SDS011;9326;49.468;11.008;2023-04-25T16:09:06;5.50;;;2.43;;
18399;SDS011;9326;49.468;11.008;2023-04-25T16:11:34;3.73;;;2.50;;
18399;SDS011;9326;49.468;11.008;2023-04-25T16:14:01;3.03;;;2.73;;
18399;SDS011;9326;49.468;11.008;2023-04-25T16:16:28;3.60;;;2.37;;
18399;SDS011;9326;49.468;11.008;2023-04-25T16:18:57;2.70;;;1.87;;
18399;SDS011;9326;49.468;11.008;2023-04-25T16:21:27;3.17;;;2.07;;
18399;SDS011;9326;49.468;11.008;2023-04-25T16:23:54;2.17;;;1.80;;
18399;SDS011;9326;49.468;11.008;2023-04-25T16:26:21;3.90;;;2.40;;
18399;SDS011;9326;49.468;11.008;2023-04-25T16:28:50;2.93;;;2.10;;
18399;SDS011;9326;49.468;11.008;2023-04-25T16:31:17;2.27;;;1.90;;
18399;SDS011;9326;49.468;11.008;2023-04-25T16:33:44;4.00;;;1.90;;
18399;SDS011;9326;49.468;11.008;2023-04-25T16:36:13;3.73;;;2.30;;
18399;SDS011;9326;49.468;11.008;2023-04-25T16:38:40;3.57;;;2.43;;
18399;SDS011;9326;49.468;11.008;2023-04-25T16:41:07;3.90;;;2.30;;
18399;SDS011;9326;49.468;11.008;2023-04-25T16:43:37;4.87;;;2.30;;
18399;SDS011;9326;49.468;11.008;2023-04-25T16:46:05;3.67;;;2.40;;
18399;SDS011;9326;49.468;11.008;2023-04-25T16:48:32;3.00;;;2.13;;
18399;SDS011;9326;49.468;11.008;2023-04-25T16:51:00;5.00;;;2.40;;
18399;SDS011;9326;49.468;11.008;2023-04-25T16:53:28;3.60;;;2.37;;
18399;SDS011;9326;49.468;11.008;2023-04-25T16:55:56;4.37;;;2.13;;
18399;SDS011;9326;49.468;11.008;2023-04-25T16:58:23;4.97;;;2.13;;
18399;SDS011;9326;49.468;11.008;2023-04-25T17:00:53;3.70;;;2.17;;
18399;SDS011;9326;49.468;11.008;2023-04-25T17:03:21;2.17;;;1.97;;
18399;SDS011;9326;49.468;11.008;2023-04-25T17:05:52;2.90;;;2.10;;
18399;SDS011;9326;49.468;11.008;2023-04-25T17:08:20;3.70;;;2.23;;
18399;SDS011;9326;49.468;11.008;2023-04-25T17:10:49;3.67;;;2.00;;
18399;SDS011;9326;49.468;11.008;2023-04-25T17:13:16;2.83;;;2.07;;
18399;SDS011;9326;49.468;11.008;2023-04-25T17:15:44;2.93;;;1.97;;
18399;SDS011;9326;49.468;11.008;2023-04-25T17:18:11;3.63;;;1.83;;
18399;SDS011;9326;49.468;11.008;2023-04-25T17:20:38;1.93;;;1.50;;
18399;SDS011;9326;49.468;11.008;2023-04-25T17:23:06;2.73;;;1.77;;
18399;SDS011;9326;49.468;11.008;2023-04-25T17:25:33;3.87;;;2.00;;
18399;SDS011;9326;49.468;11.008;2023-04-25T17:28:01;3.27;;;1.70;;
18399;SDS011;9326;49.468;11.008;2023-04-25T17:30:28;2.67;;;1.70;;
18399;SDS011;9326;49.468;11.008;2023-04-25T17:32:56;1.87;;;1.50;;
18399;SDS011;9326;49.468;11.008;2023-04-25T17:35:23;4.20;;;2.00;;
18399;SDS011;9326;49.468;11.008;2023-04-25T17:37:53;2.80;;;1.60;;
18399;SDS011;9326;49.468;11.008;2023-04-25T17:40:20;4.27;;;2.13;;
18399;SDS011;9326;49.468;11.008;2023-04-25T17:42:48;3.27;;;2.10;;
18399;SDS011;9326;49.468;11.008;2023-04-25T17:45:16;4.83;;;2.20;;
18399;SDS011;9326;49.468;11.008;2023-04-25T17:47:44;2.63;;;1.50;;
18399;SDS011;9326;49.468;11.008;2023-04-25T17:50:11;5.13;;;2.00;;
18399;SDS011;9326;49.468;11.008;2023-04-25T17:52:40;6.57;;;3.07;;
18399;SDS011;9326;49.468;11.008;2023-04-25T17:55:09;6.63;;;2.83;;
18399;SDS011;9326;49.468;11.008;2023-04-25T17:57:37;3.30;;;2.20;;
18399;SDS011;9326;49.468;11.008;2023-04-25T18:00:05;5.80;;;2.50;;
18399;SDS011;9326;49.468;11.008;2023-04-25T18:02:36;5.20;;;2.60;;
18399;SDS011;9326;49.468;11.008;2023-04-25T18:05:03;4.40;;;2.00;;
18399;SDS011;9326;49.468;11.008;2023-04-25T18:07:33;3.27;;;2.23;;
18399;SDS011;9326;49.468;11.008;2023-04-25T18:10:00;7.60;;;2.23;;
18399;SDS011;9326;49.468;11.008;2023-04-25T18:12:29;3.33;;;2.20;;
18399;SDS011;9326;49.468;11.008;2023-04-25T18:14:57;3.40;;;2.20;;
18399;SDS011;9326;49.468;11.008;2023-04-25T18:17:25;3.53;;;2.33;;
18399;SDS011;9326;49.468;11.008;2023-04-25T18:19:53;4.17;;;2.37;;
18399;SDS011;9326;49.468;11.008;2023-04-25T18:22:20;4.17;;;2.30;;
18399;SDS011;9326;49.468;11.008;2023-04-25T18:24:47;5.17;;;1.97;;
18399;SDS011;9326;49.468;11.008;2023-04-25T18:27:14;3.40;;;2.10;;
18399;SDS011;9326;49.468;11.008;2023-04-25T18:29:42;4.43;;;2.00;;
18399;SDS011;9326;49.468;11.008;2023-04-25T18:32:09;4.87;;;2.33;;
18399;SDS011;9326;49.468;11.008;2023-04-25T18:34:36;4.63;;;2.50;;
18399;SDS011;9326;49.468;11.008;2023-04-25T18:37:09;8.03;;;4.20;;
18399;SDS011;9326;49.468;11.008;2023-04-25T18:39:37;5.93;;;2.30;;
18399;SDS011;9326;49.468;11.008;2023-04-25T18:42:05;5.30;;;2.70;;
18399;SDS011;9326;49.468;11.008;2023-04-25T18:44:32;6.73;;;2.60;;
18399;SDS011;9326;49.468;11.008;2023-04-25T18:47:03;4.37;;;2.10;;
18399;SDS011;9326;49.468;11.008;2023-04-25T18:49:31;6.53;;;2.50;;
18399;SDS011;9326;49.468;11.008;2023-04-25T18:51:58;5.03;;;2.60;;
18399;SDS011;9326;49.468;11.008;2023-04-25T18:54:28;6.47;;;2.63;;
18399;SDS011;9326;49.468;11.008;2023-04-25T18:56:55;6.10;;;2.70;;
18399;SDS011;9326;49.468;11.008;2023-04-25T18:59:25;7.27;;;2.90;;
18399;SDS011;9326;49.468;11.008;2023-04-25T19:01:52;5.57;;;2.60;;
18399;SDS011;9326;49.468;11.008;2023-04-25T19:04:19;6.80;;;3.03;;
18399;SDS011;9326;49.468;11.008;2023-04-25T19:06:47;4.77;;;2.63;;
18399;SDS011;9326;49.468;11.008;2023-04-25T19:09:16;3.70;;;2.33;;
18399;SDS011;9326;49.468;11.008;2023-04-25T19:11:44;5.47;;;2.83;;
18399;SDS011;9326;49.468;11.008;2023-04-25T19:14:12;7.00;;;2.70;;
18399;SDS011;9326;49.468;11.008;2023-04-25T19:16:40;3.87;;;2.60;;
18399;SDS011;9326;49.468;11.008;2023-04-25T19:19:07;4.10;;;2.43;;
18399;SDS011;9326;49.468;11.008;2023-04-25T19:21:35;3.87;;;2.57;;
18399;SDS011;9326;49.468;11.008;2023-04-25T19:24:03;5.37;;;2.53;;
18399;SDS011;9326;49.468;11.008;2023-04-25T19:26:31;6.40;;;2.60;;
18399;SDS011;9326;49.468;11.008;2023-04-25T19:29:06;5.73;;;2.37;;
18399;SDS011;9326;49.468;11.008;2023-04-25T19:31:34;3.27;;;2.70;;
18399;SDS011;9326;49.468;11.008;2023-04-25T19:34:01;4.43;;;2.57;;
18399;SDS011;9326;49.468;11.008;2023-04-25T19:36:28;6.53;;;2.67;;
18399;SDS011;9326;49.468;11.008;2023-04-25T19:38:57;5.67;;;2.57;;
18399;SDS011;9326;49.468;11.008;2023-04-25T19:41:28;5.10;;;2.93;;
18399;SDS011;9326;49.468;11.008;2023-04-25T19:43:55;4.30;;;2.57;;
18399;SDS011;9326;49.468;11.008;2023-04-25T19:46:26;4.73;;;2.80;;
18399;SDS011;9326;49.468;11.008;2023-04-25T19:48:53;6.80;;;2.70;;
18399;SDS011;9326;49.468;11.008;2023-04-25T19:51:20;5.20;;;3.03;;
18399;SDS011;9326;49.468;11.008;2023-04-25T19:53:47;4.63;;;2.80;;